Terminal Aerodrome Forecast
Issued by NWS

Home | Current Version | Previous Version | Text Only | Print | Product List | Glossary On
Versions: 1 2 3 4 5 6 7 8 9 10 11 12 13 14 15 16 17 18 19 20 21 22 23 24 25
000
FTUS43 KDLH 242100 AAB
TAFBRD
TAF AMD
KBRD 242117Z 2421/2518 18012G17KT P6SM SCT025 BKN050
      TEMPO 2423/2501 3SM TSRA BKN015CB
     FM250100 19006KT P6SM SCT050
     FM250600 24005KT P6SM SCT050
     FM251200 24011KT P6SM SCT050=

USA.gov is the U.S. government's official web portal to all federal, state and local government web resources and services.